createdAt,value
2019-05-10T00:15:49.986Z,39.18
2019-05-10T00:30:49.701Z,41.95
2019-05-10T00:45:51.065Z,47.62
2019-05-10T01:00:51.097Z,35.90
2019-05-10T01:15:49.142Z,36.93
2019-05-10T01:30:55.074Z,39.40
2019-05-10T01:45:48.948Z,43.08
2019-05-10T02:00:48.905Z,35.48
2019-05-10T02:15:49.371Z,30.05
2019-05-10T02:30:52.399Z,30.50
2019-05-10T02:45:51.731Z,39.40
2019-05-10T03:00:51.916Z,35.20
2019-05-10T03:15:52.238Z,36.53
2019-05-10T03:30:49.566Z,36.73
2019-05-10T03:45:49.608Z,36.90
2019-05-10T04:00:50.992Z,42.40
2019-05-10T04:15:53.511Z,34.15
2019-05-10T04:30:49.795Z,35.78
2019-05-10T04:45:49.708Z,29.72
2019-05-10T05:00:49.680Z,13.43
2019-05-10T05:15:49.532Z,13.93
2019-05-10T05:30:49.463Z,11.33
2019-05-10T05:45:49.979Z,8.83
2019-05-10T06:00:49.915Z,6.10
2019-05-10T06:30:48.960Z,3.90
2019-05-10T06:45:52.607Z,4.65
2019-05-10T07:00:48.924Z,6.45
2019-05-10T07:15:50.005Z,4.47
2019-05-10T07:30:55.188Z,5.10
2019-05-10T07:45:49.101Z,5.00
2019-05-10T08:00:56.077Z,7.40
2019-05-10T08:15:50.568Z,4.12
2019-05-10T08:30:56.145Z,4.30
2019-05-10T08:45:52.349Z,3.52
2019-05-10T09:01:01.445Z,4.15
2019-05-10T09:15:54.342Z,4.45
2019-05-10T09:30:57.603Z,4.28
2019-05-10T09:45:49.140Z,4.87
2019-05-10T10:00:51.281Z,4.60
2019-05-10T10:15:52.473Z,4.15
2019-05-10T10:30:59.087Z,6.72
2019-05-10T10:45:51.792Z,4.22
2019-05-10T11:00:49.062Z,4.30
2019-05-10T11:15:51.537Z,4.75
2019-05-10T11:30:56.017Z,3.80
2019-05-10T11:45:51.471Z,4.80
2019-05-10T12:00:56.525Z,4.12
2019-05-10T12:15:52.039Z,3.72
2019-05-10T12:30:55.771Z,3.02
2019-05-10T12:45:51.731Z,4.60
2019-05-10T13:00:54.280Z,3.30
2019-05-10T13:15:49.940Z,3.52
2019-05-10T13:30:49.871Z,3.30
2019-05-10T13:45:49.117Z,2.87
2019-05-10T14:00:49.149Z,6.05
2019-05-10T14:15:50.504Z,3.40
2019-05-10T14:30:57.230Z,3.72
2019-05-10T14:45:49.306Z,3.62
2019-05-10T15:00:49.245Z,3.67
2019-05-10T15:15:49.202Z,4.20
2019-05-10T15:30:52.226Z,4.30
2019-05-10T15:45:52.365Z,4.45
2019-05-10T16:00:52.930Z,4.70
2019-05-10T16:15:51.733Z,5.83
2019-05-10T16:30:49.839Z,6.30
2019-05-10T16:45:49.707Z,4.90
2019-05-10T17:00:49.710Z,5.50
2019-05-10T17:15:55.675Z,5.05
2019-05-10T17:30:49.556Z,7.00
2019-05-10T17:45:55.525Z,5.45
2019-05-10T18:00:51.590Z,6.15
2019-05-10T18:30:50.335Z,6.12
2019-05-10T19:15:58.430Z,4.90
2019-05-10T19:31:00.486Z,5.70
2019-05-10T19:46:00.143Z,12.15
2019-05-10T20:15:53.253Z,4.42
2019-05-10T21:15:56.687Z,3.20
2019-05-10T21:30:53.667Z,3.15
2019-05-10T22:00:55.172Z,3.40
2019-05-10T22:15:52.476Z,3.20
2019-05-10T22:30:58.002Z,3.45
2019-05-10T22:45:51.702Z,3.05
2019-05-10T23:00:53.324Z,2.62
2019-05-10T23:15:51.225Z,3.00
2019-05-10T23:30:51.263Z,2.70
2019-05-10T23:45:53.714Z,2.87
